Flight Track Log - Related Links

Times and Time Zones

All times are in EST time to prevent confusion due to time zone crossing. See the N4200B flight status page for this flight to view local times or setup timezone preferences in your user account.

Time Position Orientation Groundspeed Altitude Reporting Facility
EST Latitude Longitude Course Direction KTS MPH feet Rate Location/Type
Fri 04:14:00 PM 26.7180 -80.1673 336° Northwest  Level FlightAware Approximate
Fri 04:15:00 PM 26.7462 -80.1814 336° Northwest  Level FlightAware Approximate
Fri 04:16:00 PM 26.7728 -80.1988 329° Northwest  Level FlightAware Approximate
Fri 04:17:00 PM 26.7992 -80.2168 329° Northwest  Level FlightAware Approximate
Fri 04:18:00 PM 26.8256 -80.2347 329° Northwest  Level FlightAware Approximate
Fri 04:19:00 PM 26.8520 -80.2527 329° Northwest  Level FlightAware Approximate
Fri 04:20:00 PM 26.8783 -80.2706 329° Northwest  Level FlightAware Approximate
Fri 04:21:00 PM 26.9047 -80.2886 329° Northwest  Level FlightAware Approximate
Fri 04:22:00 PM 26.9311 -80.3066 329° Northwest  Level FlightAware Approximate
Fri 04:23:00 PM 26.9575 -80.3246 329° Northwest  Level FlightAware Approximate
Fri 04:24:00 PM 26.9839 -80.3426 329° Northwest  Level FlightAware Approximate
Fri 04:26:06 PM 26.8744 -80.3311 329° Northwest 98 113 5,000  Level Miami Center
Fri 04:26:40 PM 27.0542 -80.3906 329° Northwest  Level FlightAware Approximate
Fri 04:27:06 PM 26.9014 -80.3414 341° North 98 113 5,000  Level Miami Center
Fri 04:28:00 PM 27.0893 -80.4146 329° Northwest  Level FlightAware Approximate
Fri 04:28:06 PM 26.9264 -80.3514 340° North 111 128 5,000  Level Miami Center
Fri 04:29:00 PM 27.1157 -80.4327 329° Northwest  Level FlightAware Approximate
Fri 04:29:06 PM 26.9489 -80.3636 334° Northwest 105 121 5,000  Level Miami Center
Fri 04:30:00 PM 27.1389 -80.4555 318° Northwest  Level FlightAware Approximate
Fri 04:30:06 PM 26.9736 -80.3761 336° Northwest 100 115 5,000  Level Miami Center
Fri 04:31:00 PM 27.1637 -80.4758 329° Northwest  Level FlightAware Approximate
Fri 04:31:06 PM 26.9983 -80.3931 329° Northwest 100 115 5,000  Level Miami Center
Fri 04:32:06 PM 27.0167 -80.4169 311° West 95 109 5,000  Level Miami Center
Fri 04:33:06 PM 27.0328 -80.4408 307° West 95 109 5,000  Level Miami Center
Fri 04:34:06 PM 27.0489 -80.4647 307° West 101 116 5,000  Level Miami Center
Fri 04:35:06 PM 27.0628 -80.4908 301° West 106 122 5,000  Level Miami Center
Fri 04:36:06 PM 27.0831 -80.5125 316° Northwest 106 122 5,000  Level Miami Center
Fri 04:37:06 PM 27.1078 -80.5294 329° Northwest 100 115 5,000  Level Miami Center
Fri 04:38:06 PM 27.1325 -80.5442 332° Northwest 100 115 5,000  Level Miami Center
Fri 04:39:06 PM 27.1550 -80.5614 326° Northwest 100 115 5,000  Level Miami Center
Fri 04:40:06 PM 27.1817 -80.5808 327° Northwest 100 115 5,000  Level Miami Center
Fri 04:41:06 PM 27.2061 -80.5981 328° Northwest 100 115 5,000  Level Miami Center
Fri 04:42:06 PM 27.2308 -80.6128 332° Northwest 100 115 5,000  Level Miami Center
Fri 04:43:06 PM 27.2533 -80.6275 330° Northwest 100 115 5,000  Level Miami Center
Fri 04:44:06 PM 27.2781 -80.6469 325° Northwest 100 115 5,000  Level Miami Center
Fri 04:45:06 PM 27.3067 -80.6667 329° Northwest 100 115 5,000  Level Miami Center
Fri 04:46:06 PM 27.3314 -80.6839 328° Northwest 100 115 5,000  Level Miami Center
Fri 04:47:06 PM 27.3558 -80.7011 328° Northwest 100 115 5,000  Level Miami Center
Fri 04:48:06 PM 27.3806 -80.7183 328° Northwest 100 115 5,000  Level Miami Center
Fri 04:49:06 PM 27.4031 -80.7353 326° Northwest 100 115 5,000  Level Miami Center
Fri 04:50:06 PM 27.4317 -80.7550 329° Northwest 100 115 5,000  Level Miami Center
Fri 04:51:06 PM 27.4564 -80.7722 328° Northwest 100 115 5,000  Level Miami Center
Fri 04:52:06 PM 27.4808 -80.7872 331° Northwest 100 115 5,000  Level Miami Center
Fri 04:53:06 PM 27.5056 -80.8067 325° Northwest 100 115 5,000  Level Miami Center
Fri 04:54:06 PM 27.5300 -80.8239 328° Northwest 100 115 5,000  Level Miami Center
Fri 04:55:06 PM 27.5439 -80.8503 301° West 100 115 5,000  Level Miami Center
Fri 04:56:06 PM 27.5578 -80.8811 297° West 100 115 5,000  Level Miami Center
Fri 04:57:06 PM 27.5822 -80.8961 331° Northwest 100 115 5,000  Level Miami Center
Fri 04:58:06 PM 27.6069 -80.9108 332° Northwest 100 115 5,000  Level Miami Center
Fri 04:59:06 PM 27.6317 -80.9236 335° Northwest 100 115 5,000  Level Miami Center
Fri 05:00:06 PM 27.6603 -80.9408 332° Northwest 100 115 5,000  Level Miami Center
Fri 05:01:06 PM 27.6850 -80.9583 328° Northwest 100 115 5,000  Level Miami Center
Fri 05:02:06 PM 27.7117 -80.9733 334° Northwest 100 115 5,000  Level Miami Center
Fri 05:03:06 PM 27.7361 -80.9883 331° Northwest 100 115 5,000  Level Miami Center
Fri 05:04:06 PM 27.7608 -81.0033 332° Northwest 100 115 5,000  Level Miami Center
Fri 05:05:06 PM 27.7894 -81.0206 332° Northwest 100 115 5,000  Level Miami Center
Fri 05:07:19 PM 27.8500 -81.0500 337° Northwest 108 124 5,000  Level Orlando TRACON
Fri 05:08:20 PM 27.8833 -81.0667 336° Northwest 108 124 5,000  Level Orlando TRACON
Fri 05:09:25 PM 27.9000 -81.0833 319° Northwest 107 123 5,000  Level Orlando TRACON
Fri 05:10:26 PM 27.9333 -81.1000 336° Northwest 110 127 5,000  Level Orlando TRACON
Fri 05:11:26 PM 27.9667 -81.1167 336° Northwest 109 125 5,000 -48 Level Orlando TRACON
Fri 05:12:32 PM 28.0000 -81.1333 336° Northwest 112 129 4,900 -331 Descending Orlando TRACON
Fri 05:13:33 PM 28.0167 -81.1667 300° West 138 159 4,300 -496 Descending Orlando TRACON
Fri 05:14:33 PM 28.0167 -81.2167 270° West 129 148 3,900 -158 Descending Orlando TRACON
Fri 05:15:27 PM 28.0333 -81.2333 319° Northwest 106 122 4,000  Climbing Orlando TRACON
Fri 05:16:33 PM 28.0500 -81.2667 300° West 111 128 3,900 -48 Descending Orlando TRACON
Fri 05:17:33 PM 28.0500 -81.3000 270° West 110 127 3,900 50 Level Orlando TRACON
Fri 05:18:33 PM 28.0667 -81.3333 300° West 111 128 4,000  Climbing Orlando TRACON
Fri 05:19:28 PM 28.0833 -81.3667 300° West 112 129 3,900  Descending Orlando TRACON
Fri 05:20:28 PM 28.0833 -81.4000 270° West 112 129 4,000 50 Climbing Orlando TRACON
Fri 05:21:28 PM 28.0833 -81.4333 270° West 114 131 4,000  Level Orlando TRACON
Fri 05:22:28 PM 28.1000 -81.4667 300° West 108 124 4,000  Level Orlando TRACON
Fri 05:23:28 PM 28.1167 -81.5000 300° West 109 125 4,000 -52 Level Orlando TRACON
Fri 05:24:23 PM 28.1333 -81.5167 319° Northwest 107 123 3,900 -313 Descending Orlando TRACON
Fri 05:25:23 PM 28.1667 -81.5167 360° North 117 135 3,400 -450 Descending Orlando TRACON
Fri 05:26:23 PM 28.2000 -81.5333 336° Northwest 122 140 3,000 -200 Descending Orlando TRACON
Fri 05:27:23 PM 28.2333 -81.5500 336° Northwest 107 123 3,000  Level Orlando TRACON
Fri 05:28:23 PM 28.2500 -81.5500 360° North 105 121 3,000  Level Orlando TRACON
Fri 05:29:24 PM 28.2833 -81.5500 360° North 105 121 3,000  Level Orlando TRACON
Fri 05:30:24 PM 28.3167 -81.5333 24° Northeast 107 123 3,000 -200 Level Orlando TRACON
Fri 05:31:24 PM 28.3500 -81.5333 360° North 114 131 2,600 -500 Descending Orlando TRACON
Fri 05:32:24 PM 28.3833 -81.5333 360° North 128 147 2,000 -331 Descending Orlando TRACON
Fri 05:33:31 PM 28.4167 -81.5167 24° Northeast 108 124 1,900 -50 Descending Orlando TRACON
Fri 05:34:25 PM 28.4333 -81.5167 360° North 101 116 1,900  Level Orlando TRACON
Fri 05:35:31 PM 28.4667 -81.5000 24° Northeast 101 116 1,900  Level Orlando TRACON
Fri 05:36:31 PM 28.4833 -81.4833 41° Northeast 99 114 1,900  Level Orlando TRACON
Fri 05:37:31 PM 28.5000 -81.4500 60° Northeast 99 114 1,900 -105 Level Orlando TRACON
Fri 05:38:25 PM 28.5167 -81.4333 41° Northeast 91 105 1,700 -365 Descending Orlando TRACON
Fri 05:39:26 PM 28.5167 -81.4000 90° East 94 108 1,200 -472 Descending Orlando TRACON
Fri 05:40:32 PM 28.5333 -81.3667 60° Northeast 84 97 700 -429 Descending Orlando TRACON
Fri 05:41:32 PM 28.5333 -81.3500 90° East 68 78 300 -400 Descending Orlando TRACON
Fri 05:43:00 PM 28.5455 -81.3329 60° Northeast  Level Estimated
Fri 05:50:00 PM 28.5455 -81.3329 60° Northeast  Level Estimated

Login

Don't have an account? Register now (free) for customized features, flight alerts, and more!